Vous êtes sur la page 1sur 2

##########################################################

# Query made at 12/06/2012 18:57:16 UTC


# Time interval: from 12/19/2009 15:00 to 12/20/2009 03:59 UTC
##########################################################

##########################################################
# KBOS, Boston, Logan International Airport (United States)
# WMO index: 72509
# Latitude 42-21-38N. Longitude 071-00-38W. Altitude 6 m.
##########################################################

###################################
# METAR/SPECI from KBOS
###################################
200912191554 METAR KBOS 191554Z 31006KT 10SM SCT140 OVC200 M05/M17 A2990
RMK AO2 SLP125 T10501167=
200912191654 METAR KBOS 191654Z 34007KT 10SM SCT140 OVC200 M03/M16 A2986
RMK AO2 SLP112 T10331156=
200912191754 METAR KBOS 191754Z 35007KT 10SM BKN140 OVC200 M03/M14 A2983
RMK AO2 SLP100 T10331139 11033 21083
56037=
200912191854 METAR KBOS 191854Z 02009KT 10SM BKN140 OVC200 M02/M12 A2981
RMK AO2 SLP093 T10221117=
200912191954 METAR KBOS 191954Z 02011KT 10SM FEW110 BKN140 OVC200 M02/M14
A2979 RMK AO2 SLP088 T10221139=
200912192054 METAR KBOS 192054Z 01008KT 10SM SCT080 BKN100 BKN200 M02/M17
A2979 RMK AO2 SLP086 T10221172 56014=
200912192154 METAR KBOS 192154Z 01008KT 10SM OVC110 M03/M14 A2976 RMK
AO2 SLP077 T10281144=
200912192254 METAR KBOS 192254Z 01010KT 10SM SCT080 OVC110 M03/M13 A2974
RMK AO2 SLP068 T10281133=
200912192354 METAR KBOS 192354Z 01011KT 10SM SCT080 BKN120 OVC200 M02/M13
A2971 RMK AO2 SLP060 T10221128 11022
21033 56026=
200912200054 SPECI KBOS 200054Z 36010KT 10SM FEW050 OVC100 M02/M12 A2969
RMK AO2 SLP055 T10171122=
200912200154 METAR KBOS 200154Z 36010KT 10SM FEW050 BKN080 OVC120 M01/M12
A2968 RMK AO2 SLP049 T10111117=
200912200254 METAR KBOS 200254Z 03020KT 10SM BKN032 OVC070 00/M07 A2965
RMK AO2 PK WND 04030/0244 SLP039
T00001067 58021=
200912200354 METAR KBOS 200354Z 03019G29KT 10SM BKN030 OVC060 00/M06 A2965
RMK AO2 PK WND 04030/0336 SLP039
T00001061=

# No short TAF reports from KBOS in databse.

###################################
# large TAF from KBOS
###################################
200912191802 TAF KBOS 191802Z 1918/2024 36010KT P6SM SCT120 OVC200 FM192200
04014KT P6SM OVC080 FM200100 04018KT P6SM
SCT015 OVC050 FM200400 03022G35KT 2SM -SN
BR OVC015 FM200600 02027G40KT 1/2SM SN FZFG
OVC008 FM200800 01032G45KT 1/2SM SN FZFG
BLSN OVC008 FM201400 35028G42KT 1SM -SN
BR BLSN OVC008 FM201500 35025G35KT 1SM -SN
BR OVC014 FM201800 33020G30KT P6SM -SN OVC015
FM201900 33019G28KT P6SM OVC015 FM202100
32018G26KT P6SM VCSH OVC026 FM202300 31018G27KT
P6SM BKN026=
200912192206 KBOS 192206Z 1922/2024 02010KT P6SM OVC100 FM200100 04018KT P6SM
SCT015 OVC050 FM200300 03022G35KT 2SM -SN
BR OVC015 FM200600 02027G40KT 1/2SM SN FZFG
OVC008 FM200800 01032G45KT 1/2SM SN FZFG
BLSN OVC008 FM201400 35028G42KT 1SM -SN
BR BLSN OVC008 FM201500 35025G35KT 1SM -SN
BR OVC014 FM201800 33020G30KT P6SM -SN OVC015
FM201900 33019G28KT P6SM OVC015 FM202100
32018G26KT P6SM VCSH OVC026 FM202300 31018G27KT
P6SM BKN026=
200912192355 TAF KBOS 192355Z 2000/2106 02010KT P6SM OVC080 FM200100 04018KT
P6SM SCT015 OVC050 FM200300 03022G35KT 2SM
-SN BR OVC015 FM200600 02027G40KT 1/2SM
SN FZFG OVC008 FM200800 01032G45KT 1/2SM
SN FZFG BLSN VV001 FM201400 35028G42KT 1SM
-SN BR BLSN OVC003 FM201500 35025G35KT 3SM
-SN BR OVC009 FM201900 33019G28KT P6SM OVC015
FM202100 32018G26KT P6SM VCSH OVC026 FM202300
31018G27KT P6SM BKN026 FM210200 30012G22KT
P6SM SCT026 BKN050=
200912200125 KBOS 200125Z 2001/2106 02010KT P6SM OVC080 FM200300 03022G35KT
2SM -SN BR OVC015 FM200600 02027G40KT 1/2SM
SN FZFG OVC008 FM200800 01032G45KT 1/2SM
SN FZFG BLSN VV001 FM201400 35028G42KT 1SM
-SN BR BLSN OVC003 FM201500 35025G35KT 3SM
-SN BR OVC009 FM201900 33019G28KT P6SM OVC015
FM202100 32018G26KT P6SM VCSH OVC026 FM202300
31018G27KT P6SM BKN026 FM210200 30012G22KT
P6SM SCT026 BKN050=
200912200314 KBOS 200314Z 2003/2106 02020G27KT P6SM BKN030 OVC080 FM200500
03022G35KT
2SM -SN BR OVC015 FM200600 02027G40KT 1/2SM
SN FZFG OVC008 FM200800 01032G45KT 1/2SM
SN FZFG BLSN VV001 FM201400 35028G42KT 1SM
-SN BR BLSN OVC003 FM201500 35025G35KT 3SM
-SN BR OVC009 FM201900 33019G28KT P6SM OVC015
FM202100 32018G26KT P6SM VCSH OVC026 FM202300
31018G27KT P6SM BKN026 FM210200 30012G22KT
P6SM SCT026 BKN050=